sensor_id;sensor_type;location;lat;lon;timestamp;pressure;altitude;pressure_sealevel;temperature;humidity
33404;BME280;19751;40.274;18.268;2022-09-01T00:02:12;100700.28;;;24.32;91.43
33404;BME280;19751;40.274;18.268;2022-09-01T00:04:38;100699.16;;;24.33;91.44
33404;BME280;19751;40.274;18.268;2022-09-01T00:07:06;100687.63;;;24.31;91.42
33404;BME280;19751;40.274;18.268;2022-09-01T00:09:32;100690.94;;;24.28;91.55
33404;BME280;19751;40.274;18.268;2022-09-01T00:11:57;100688.72;;;24.25;91.88
33404;BME280;19751;40.274;18.268;2022-09-01T00:14:27;100688.72;;;24.25;91.95
33404;BME280;19751;40.274;18.268;2022-09-01T00:16:53;100687.91;;;24.24;92.21
33404;BME280;19751;40.274;18.268;2022-09-01T00:19:19;100681.88;;;24.22;92.20
33404;BME280;19751;40.274;18.268;2022-09-01T00:21:45;100674.44;;;24.18;92.22
33404;BME280;19751;40.274;18.268;2022-09-01T00:24:15;100687.13;;;24.19;92.22
33404;BME280;19751;40.274;18.268;2022-09-01T00:26:41;100680.22;;;24.21;92.40
33404;BME280;19751;40.274;18.268;2022-09-01T00:29:07;100676.91;;;24.24;92.87
33404;BME280;19751;40.274;18.268;2022-09-01T00:31:33;100679.91;;;24.28;93.41
33404;BME280;19751;40.274;18.268;2022-09-01T00:33:59;100676.88;;;24.29;93.85
33404;BME280;19751;40.274;18.268;2022-09-01T00:36:25;100669.19;;;24.31;94.65
33404;BME280;19751;40.274;18.268;2022-09-01T00:38:51;100683.47;;;24.34;94.88
33404;BME280;19751;40.274;18.268;2022-09-01T00:41:21;100683.47;;;24.34;95.08
33404;BME280;19751;40.274;18.268;2022-09-01T00:43:50;100687.03;;;24.34;95.29
33404;BME280;19751;40.274;18.268;2022-09-01T00:46:20;100684.56;;;24.33;95.55
33404;BME280;19751;40.274;18.268;2022-09-01T00:48:56;100680.72;;;24.34;95.65
33404;BME280;19751;40.274;18.268;2022-09-01T00:51:25;100674.69;;;24.31;95.78
33404;BME280;19751;40.274;18.268;2022-09-01T00:53:51;100668.91;;;24.28;96.19
33404;BME280;19751;40.274;18.268;2022-09-01T00:56:17;100667.00;;;24.23;96.66
33404;BME280;19751;40.274;18.268;2022-09-01T00:58:43;100672.25;;;24.20;96.81
33404;BME280;19751;40.274;18.268;2022-09-01T01:01:10;100666.75;;;24.20;97.01
33404;BME280;19751;40.274;18.268;2022-09-01T01:03:36;100667.31;;;24.17;96.97
33404;BME280;19751;40.274;18.268;2022-09-01T01:06:07;100670.63;;;24.14;97.21
33404;BME280;19751;40.274;18.268;2022-09-01T01:08:41;100673.38;;;24.09;97.51
33404;BME280;19751;40.274;18.268;2022-09-01T01:11:11;100664.03;;;24.04;97.32
33404;BME280;19751;40.274;18.268;2022-09-01T01:14:03;100660.22;;;24.00;97.21
33404;BME280;19751;40.274;18.268;2022-09-01T01:16:45;100661.63;;;23.98;97.16
33404;BME280;19751;40.274;18.268;2022-09-01T01:19:21;100663.81;;;23.96;96.81
33404;BME280;19751;40.274;18.268;2022-09-01T01:22:11;100667.38;;;23.96;96.53
33404;BME280;19751;40.274;18.268;2022-09-01T01:24:58;100661.06;;;23.96;96.94
33404;BME280;19751;40.274;18.268;2022-09-01T01:27:30;100669.06;;;23.97;97.04
33404;BME280;19751;40.274;18.268;2022-09-01T01:29:56;100667.66;;;24.00;97.69
33404;BME280;19751;40.274;18.268;2022-09-01T01:32:21;100668.72;;;24.04;98.12
33404;BME280;19751;40.274;18.268;2022-09-01T01:34:47;100662.41;;;24.03;98.49
33404;BME280;19751;40.274;18.268;2022-09-01T01:37:13;100663.53;;;24.02;98.84
33404;BME280;19751;40.274;18.268;2022-09-01T01:39:40;100657.75;;;23.99;98.51
33404;BME280;19751;40.274;18.268;2022-09-01T01:42:07;100663.53;;;23.92;98.19
33404;BME280;19751;40.274;18.268;2022-09-01T01:44:34;100661.94;;;23.86;97.72
33404;BME280;19751;40.274;18.268;2022-09-01T01:47:04;100653.94;;;23.85;97.46
33404;BME280;19751;40.274;18.268;2022-09-01T01:49:35;100660.00;;;23.81;97.12
33404;BME280;19751;40.274;18.268;2022-09-01T01:52:01;100669.38;;;23.80;97.31
33404;BME280;19751;40.274;18.268;2022-09-01T01:54:29;100667.44;;;23.81;97.72
33404;BME280;19751;40.274;18.268;2022-09-01T01:57:00;100674.28;;;23.84;98.16
33404;BME280;19751;40.274;18.268;2022-09-01T01:59:29;100666.03;;;23.84;98.53
33404;BME280;19751;40.274;18.268;2022-09-01T02:01:55;100661.13;;;23.80;99.08
33404;BME280;19751;40.274;18.268;2022-09-01T02:04:21;100659.22;;;23.71;98.97
33404;BME280;19751;40.274;18.268;2022-09-01T02:06:48;100668.81;;;23.63;98.56
33404;BME280;19751;40.274;18.268;2022-09-01T02:09:17;100663.03;;;23.60;98.24
33404;BME280;19751;40.274;18.268;2022-09-01T02:11:44;100653.44;;;23.57;98.16
33404;BME280;19751;40.274;18.268;2022-09-01T02:14:10;100652.06;;;23.54;97.87
33404;BME280;19751;40.274;18.268;2022-09-01T02:16:38;100652.06;;;23.54;97.95
33404;BME280;19751;40.274;18.268;2022-09-01T02:19:05;100654.00;;;23.54;97.88
33404;BME280;19751;40.274;18.268;2022-09-01T02:21:31;100658.41;;;23.50;98.56
33404;BME280;19751;40.274;18.268;2022-09-01T02:24:00;100656.19;;;23.57;98.24
33404;BME280;19751;40.274;18.268;2022-09-01T02:26:33;100648.50;;;23.64;98.15
33404;BME280;19751;40.274;18.268;2022-09-01T02:29:01;100645.19;;;23.67;98.45
33404;BME280;19751;40.274;18.268;2022-09-01T02:31:30;100649.88;;;23.67;98.79
33404;BME280;19751;40.274;18.268;2022-09-01T02:33:57;100651.81;;;23.66;98.94
33404;BME280;19751;40.274;18.268;2022-09-01T02:36:23;100658.41;;;23.65;99.22
33404;BME280;19751;40.274;18.268;2022-09-01T02:38:50;100652.31;;;23.63;99.73
33404;BME280;19751;40.274;18.268;2022-09-01T02:41:16;100656.47;;;23.61;100.00
33404;BME280;19751;40.274;18.268;2022-09-01T02:43:44;100647.69;;;23.53;100.00
33404;BME280;19751;40.274;18.268;2022-09-01T02:46:11;100650.69;;;23.47;100.00
33404;BME280;19751;40.274;18.268;2022-09-01T02:48:40;100654.84;;;23.44;99.77
33404;BME280;19751;40.274;18.268;2022-09-01T02:51:10;100650.72;;;23.42;99.29
33404;BME280;19751;40.274;18.268;2022-09-01T02:53:37;100648.50;;;23.39;99.05
33404;BME280;19751;40.274;18.268;2022-09-01T02:56:05;100646.88;;;23.38;99.01
33404;BME280;19751;40.274;18.268;2022-09-01T02:58:34;100642.19;;;23.38;99.12
33404;BME280;19751;40.274;18.268;2022-09-01T03:01:14;100637.81;;;23.37;99.14
33404;BME280;19751;40.274;18.268;2022-09-01T03:03:50;100633.66;;;23.35;98.87
33404;BME280;19751;40.274;18.268;2022-09-01T03:06:16;100637.53;;;23.33;98.72
33404;BME280;19751;40.274;18.268;2022-09-01T03:08:49;100629.28;;;23.39;98.66
33404;BME280;19751;40.274;18.268;2022-09-01T03:11:16;100628.72;;;23.42;98.46
33404;BME280;19751;40.274;18.268;2022-09-01T03:13:43;100617.19;;;23.45;98.61
33404;BME280;19751;40.274;18.268;2022-09-01T03:16:09;100621.31;;;23.47;99.09
33404;BME280;19751;40.274;18.268;2022-09-01T03:18:34;100627.88;;;23.46;99.67
33404;BME280;19751;40.274;18.268;2022-09-01T03:21:01;100619.13;;;23.44;99.98
33404;BME280;19751;40.274;18.268;2022-09-01T03:23:28;100626.25;;;23.40;100.00
33404;BME280;19751;40.274;18.268;2022-09-01T03:25:55;100626.81;;;23.37;99.99
33404;BME280;19751;40.274;18.268;2022-09-01T03:28:21;100616.63;;;23.38;99.59
33404;BME280;19751;40.274;18.268;2022-09-01T03:30:51;100618.56;;;23.37;99.46
33404;BME280;19751;40.274;18.268;2022-09-01T03:33:18;100617.75;;;23.37;99.61
33404;BME280;19751;40.274;18.268;2022-09-01T03:35:44;100614.19;;;23.36;99.78
33404;BME280;19751;40.274;18.268;2022-09-01T03:38:11;100605.63;;;23.38;99.46
33404;BME280;19751;40.274;18.268;2022-09-01T03:40:38;100603.97;;;23.42;99.68
33404;BME280;19751;40.274;18.268;2022-09-01T03:43:06;100601.25;;;23.42;100.00
33404;BME280;19751;40.274;18.268;2022-09-01T03:45:34;100597.97;;;23.40;100.00
33404;BME280;19751;40.274;18.268;2022-09-01T03:48:00;100598.75;;;23.45;100.00
33404;BME280;19751;40.274;18.268;2022-09-01T03:50:31;100581.72;;;23.48;100.00
33404;BME280;19751;40.274;18.268;2022-09-01T03:52:58;100584.72;;;23.47;100.00
33404;BME280;19751;40.274;18.268;2022-09-01T03:55:28;100583.66;;;23.38;99.79
33404;BME280;19751;40.274;18.268;2022-09-01T03:58:00;100589.47;;;23.31;99.04
33404;BME280;19751;40.274;18.268;2022-09-01T04:00:28;100598.78;;;23.25;98.76
33404;BME280;19751;40.274;18.268;2022-09-01T04:02:57;100591.91;;;23.22;98.46
33404;BME280;19751;40.274;18.268;2022-09-01T04:05:24;100598.00;;;23.19;98.69
33404;BME280;19751;40.274;18.268;2022-09-01T04:07:58;100602.38;;;23.20;98.56
33404;BME280;19751;40.274;18.268;2022-09-01T04:10:26;100597.16;;;23.24;98.85
33404;BME280;19751;40.274;18.268;2022-09-01T04:12:52;100598.25;;;23.28;99.21
33404;BME280;19751;40.274;18.268;2022-09-01T04:15:22;100595.19;;;23.35;99.49
33404;BME280;19751;40.274;18.268;2022-09-01T04:17:47;100602.34;;;23.41;99.58
33404;BME280;19751;40.274;18.268;2022-09-01T04:20:31;100605.38;;;23.44;99.37
33404;BME280;19751;40.274;18.268;2022-09-01T04:23:07;100608.38;;;23.48;99.19
33404;BME280;19751;40.274;18.268;2022-09-01T04:25:36;100610.03;;;23.49;98.79
33404;BME280;19751;40.274;18.268;2022-09-01T04:28:04;100607.28;;;23.49;98.52
33404;BME280;19751;40.274;18.268;2022-09-01T04:30:38;100613.03;;;23.52;98.16
33404;BME280;19751;40.274;18.268;2022-09-01T04:33:06;100614.41;;;23.55;97.71
33404;BME280;19751;40.274;18.268;2022-09-01T04:35:36;100612.22;;;23.57;97.57
33404;BME280;19751;40.274;18.268;2022-09-01T04:38:02;100616.31;;;23.60;96.91
33404;BME280;19751;40.274;18.268;2022-09-01T04:40:27;100611.66;;;23.60;96.43
33404;BME280;19751;40.274;18.268;2022-09-01T04:42:53;100615.75;;;23.63;96.01
33404;BME280;19751;40.274;18.268;2022-09-01T04:45:18;100613.81;;;23.63;95.99
33404;BME280;19751;40.274;18.268;2022-09-01T04:47:47;100611.13;;;23.68;96.08
33404;BME280;19751;40.274;18.268;2022-09-01T04:50:13;100622.09;;;23.73;95.96
33404;BME280;19751;40.274;18.268;2022-09-01T04:52:44;100609.44;;;23.77;95.88
33404;BME280;19751;40.274;18.268;2022-09-01T04:55:11;100616.00;;;23.81;95.16
33404;BME280;19751;40.274;18.268;2022-09-01T04:57:47;100614.34;;;23.86;94.77
33404;BME280;19751;40.274;18.268;2022-09-01T05:00:16;100614.06;;;23.87;94.53
33404;BME280;19751;40.274;18.268;2022-09-01T05:02:55;100615.69;;;23.88;94.53
33404;BME280;19751;40.274;18.268;2022-09-01T05:05:34;100608.84;;;23.86;94.79
33404;BME280;19751;40.274;18.268;2022-09-01T05:08:01;100617.09;;;23.86;94.99
33404;BME280;19751;40.274;18.268;2022-09-01T05:10:26;100620.13;;;23.89;95.14
33404;BME280;19751;40.274;18.268;2022-09-01T05:12:54;100614.03;;;23.92;94.83
33404;BME280;19751;40.274;18.268;2022-09-01T05:15:21;100614.03;;;23.97;95.12
33404;BME280;19751;40.274;18.268;2022-09-01T05:17:47;100618.13;;;24.00;95.12
33404;BME280;19751;40.274;18.268;2022-09-01T05:20:13;100620.63;;;24.01;95.55
33404;BME280;19751;40.274;18.268;2022-09-01T05:22:40;100623.06;;;24.03;95.81
33404;BME280;19751;40.274;18.268;2022-09-01T05:25:08;100628.03;;;24.06;96.20
33404;BME280;19751;40.274;18.268;2022-09-01T05:27:42;100627.72;;;24.08;96.47
33404;BME280;19751;40.274;18.268;2022-09-01T05:30:14;100631.84;;;24.10;97.05
33404;BME280;19751;40.274;18.268;2022-09-01T05:32:41;100634.00;;;24.13;97.58
33404;BME280;19751;40.274;18.268;2022-09-01T05:35:08;100636.78;;;24.18;98.32
33404;BME280;19751;40.274;18.268;2022-09-01T05:37:37;100627.38;;;24.24;98.32
33404;BME280;19751;40.274;18.268;2022-09-01T05:40:06;100633.38;;;24.31;98.67
33404;BME280;19751;40.274;18.268;2022-09-01T05:42:34;100628.97;;;24.41;99.00
33404;BME280;19751;40.274;18.268;2022-09-01T05:45:02;100623.16;;;24.47;99.23
33404;BME280;19751;40.274;18.268;2022-09-01T05:47:28;100631.91;;;24.54;99.63
33404;BME280;19751;40.274;18.268;2022-09-01T05:49:54;100621.69;;;24.60;100.00
33404;BME280;19751;40.274;18.268;2022-09-01T05:52:21;100628.28;;;24.64;100.00
33404;BME280;19751;40.274;18.268;2022-09-01T05:54:49;100630.16;;;24.69;100.00
33404;BME280;19751;40.274;18.268;2022-09-01T05:57:16;100632.88;;;24.74;100.00
33404;BME280;19751;40.274;18.268;2022-09-01T05:59:42;100634.19;;;24.82;100.00
33404;BME280;19751;40.274;18.268;2022-09-01T06:02:08;100634.97;;;24.87;100.00
33404;BME280;19751;40.274;18.268;2022-09-01T06:04:33;100631.34;;;24.92;100.00
33404;BME280;19751;40.274;18.268;2022-09-01T06:07:00;100627.72;;;24.96;100.00
33404;BME280;19751;40.274;18.268;2022-09-01T06:09:26;100628.53;;;25.02;100.00
33404;BME280;19751;40.274;18.268;2022-09-01T06:11:51;100626.31;;;25.09;100.00
33404;BME280;19751;40.274;18.268;2022-09-01T06:14:19;100621.84;;;25.13;100.00
33404;BME280;19751;40.274;18.268;2022-09-01T06:16:45;100620.69;;;25.19;100.00
33404;BME280;19751;40.274;18.268;2022-09-01T06:19:11;100620.63;;;25.24;100.00
33404;BME280;19751;40.274;18.268;2022-09-01T06:21:38;100623.88;;;25.32;100.00
33404;BME280;19751;40.274;18.268;2022-09-01T06:24:04;100622.19;;;25.36;100.00
33404;BME280;19751;40.274;18.268;2022-09-01T06:26:34;100625.69;;;25.41;100.00
33404;BME280;19751;40.274;18.268;2022-09-01T06:29:04;100623.72;;;25.47;100.00
33404;BME280;19751;40.274;18.268;2022-09-01T06:31:32;100618.97;;;25.52;99.69
33404;BME280;19751;40.274;18.268;2022-09-01T06:34:01;100610.38;;;25.59;99.26
33404;BME280;19751;40.274;18.268;2022-09-01T06:36:28;100619.91;;;25.67;98.00
33404;BME280;19751;40.274;18.268;2022-09-01T06:38:57;100616.28;;;25.71;97.35
33404;BME280;19751;40.274;18.268;2022-09-01T06:41:25;100623.69;;;25.76;95.47
33404;BME280;19751;40.274;18.268;2022-09-01T06:43:51;100622.84;;;25.81;94.56
33404;BME280;19751;40.274;18.268;2022-09-01T06:46:19;100624.41;;;25.87;92.99
33404;BME280;19751;40.274;18.268;2022-09-01T06:48:46;100626.56;;;25.90;93.44
33404;BME280;19751;40.274;18.268;2022-09-01T06:51:17;100618.22;;;25.95;93.31
33404;BME280;19751;40.274;18.268;2022-09-01T06:53:46;100623.16;;;25.98;92.91
33404;BME280;19751;40.274;18.268;2022-09-01T06:56:16;100620.91;;;26.00;91.34
33404;BME280;19751;40.274;18.268;2022-09-01T06:58:43;100625.84;;;26.03;90.15
33404;BME280;19751;40.274;18.268;2022-09-01T07:01:16;100618.88;;;26.11;89.21
33404;BME280;19751;40.274;18.268;2022-09-01T07:03:43;100613.81;;;26.18;83.92
33404;BME280;19751;40.274;18.268;2022-09-01T07:06:09;100613.41;;;26.24;81.27
33404;BME280;19751;40.274;18.268;2022-09-01T07:08:36;100611.94;;;26.32;77.97
33404;BME280;19751;40.274;18.268;2022-09-01T07:11:05;100615.16;;;26.39;77.90
33404;BME280;19751;40.274;18.268;2022-09-01T07:13:32;100608.75;;;26.44;78.72
33404;BME280;19751;40.274;18.268;2022-09-01T07:15:59;100611.44;;;26.49;78.37
33404;BME280;19751;40.274;18.268;2022-09-01T07:18:25;100607.50;;;26.55;76.81
33404;BME280;19751;40.274;18.268;2022-09-01T07:20:52;100605.47;;;26.61;75.52
33404;BME280;19751;40.274;18.268;2022-09-01T07:23:19;100604.56;;;26.65;75.88
33404;BME280;19751;40.274;18.268;2022-09-01T07:25:47;100605.94;;;26.68;75.90
33404;BME280;19751;40.274;18.268;2022-09-01T07:28:14;100611.13;;;26.69;75.75
33404;BME280;19751;40.274;18.268;2022-09-01T07:30:46;100606.97;;;26.72;75.92
33404;BME280;19751;40.274;18.268;2022-09-01T07:33:14;100613.53;;;26.76;75.92
33404;BME280;19751;40.274;18.268;2022-09-01T07:35:40;100605.66;;;26.83;75.82
33404;BME280;19751;40.274;18.268;2022-09-01T07:38:06;100616.66;;;26.88;75.75
33404;BME280;19751;40.274;18.268;2022-09-01T07:40:36;100612.97;;;26.93;76.04
33404;BME280;19751;40.274;18.268;2022-09-01T07:43:14;100614.53;;;26.99;76.11
33404;BME280;19751;40.274;18.268;2022-09-01T07:45:43;100617.72;;;27.06;75.32
33404;BME280;19751;40.274;18.268;2022-09-01T07:48:10;100616.84;;;27.11;74.09
33404;BME280;19751;40.274;18.268;2022-09-01T07:50:42;100609.91;;;27.13;72.20
33404;BME280;19751;40.274;18.268;2022-09-01T07:53:16;100608.38;;;27.21;71.59
33404;BME280;19751;40.274;18.268;2022-09-01T07:55:43;100619.25;;;27.31;71.38
33404;BME280;19751;40.274;18.268;2022-09-01T07:58:10;100611.59;;;27.42;70.33
33404;BME280;19751;40.274;18.268;2022-09-01T08:00:40;100603.78;;;27.44;69.80
33404;BME280;19751;40.274;18.268;2022-09-01T08:03:09;100608.13;;;27.50;69.24
33404;BME280;19751;40.274;18.268;2022-09-01T08:05:34;100612.03;;;27.63;67.68
33404;BME280;19751;40.274;18.268;2022-09-01T08:08:00;100611.59;;;27.69;67.08
33404;BME280;19751;40.274;18.268;2022-09-01T08:10:26;100612.03;;;27.77;67.46
33404;BME280;19751;40.274;18.268;2022-09-01T08:12:51;100602.50;;;27.83;67.76
33404;BME280;19751;40.274;18.268;2022-09-01T08:15:17;100607.41;;;27.86;68.56
33404;BME280;19751;40.274;18.268;2022-09-01T08:17:43;100611.53;;;27.88;67.57
33404;BME280;19751;40.274;18.268;2022-09-01T08:20:10;100602.91;;;27.90;67.07
33404;BME280;19751;40.274;18.268;2022-09-01T08:22:36;100605.38;;;27.91;66.56
33404;BME280;19751;40.274;18.268;2022-09-01T08:25:06;100601.78;;;27.91;66.41
33404;BME280;19751;40.274;18.268;2022-09-01T08:27:34;100598.09;;;27.95;66.66
33404;BME280;19751;40.274;18.268;2022-09-01T08:30:05;100597.06;;;28.05;66.23
33404;BME280;19751;40.274;18.268;2022-09-01T08:32:32;100595.63;;;28.08;65.91
33404;BME280;19751;40.274;18.268;2022-09-01T08:34:58;100592.94;;;28.16;64.69
33404;BME280;19751;40.274;18.268;2022-09-01T08:37:23;100598.03;;;28.23;62.55
33404;BME280;19751;40.274;18.268;2022-09-01T08:39:50;100593.50;;;28.27;62.17
33404;BME280;19751;40.274;18.268;2022-09-01T08:45:50;100590.34;;;28.34;62.72
33404;BME280;19751;40.274;18.268;2022-09-01T08:48:14;100590.84;;;28.36;63.10
33404;BME280;19751;40.274;18.268;2022-09-01T08:50:42;100586.66;;;28.38;62.17
33404;BME280;19751;40.274;18.268;2022-09-01T08:53:28;100580.03;;;28.48;61.17
33404;BME280;19751;40.274;18.268;2022-09-01T08:55:56;100573.47;;;28.58;61.04
33404;BME280;19751;40.274;18.268;2022-09-01T08:58:23;100574.00;;;28.68;61.08
33404;BME280;19751;40.274;18.268;2022-09-01T09:01:03;100565.56;;;28.73;60.46
33404;BME280;19751;40.274;18.268;2022-09-01T09:06:16;100573.94;;;28.82;59.46
33404;BME280;19751;40.274;18.268;2022-09-01T09:08:58;100572.50;;;28.85;59.36
33404;BME280;19751;40.274;18.268;2022-09-01T09:14:19;100563.97;;;28.81;58.78
33404;BME280;19751;40.274;18.268;2022-09-01T09:16:53;100572.00;;;28.83;58.21
33404;BME280;19751;40.274;18.268;2022-09-01T09:19:29;100560.91;;;28.83;58.89
33404;BME280;19751;40.274;18.268;2022-09-01T09:21:57;100555.22;;;28.88;58.23
33404;BME280;19751;40.274;18.268;2022-09-01T09:27:27;100548.47;;;29.03;59.57
33404;BME280;19751;40.274;18.268;2022-09-01T09:30:03;100550.31;;;29.07;60.30
33404;BME280;19751;40.274;18.268;2022-09-01T09:35:28;100560.91;;;29.05;60.81
33404;BME280;19751;40.274;18.268;2022-09-01T09:41:02;100562.59;;;28.92;69.12
33404;BME280;19751;40.274;18.268;2022-09-01T09:43:30;100574.78;;;28.83;70.89
33404;BME280;19751;40.274;18.268;2022-09-01T09:48:49;100558.25;;;28.55;76.59
33404;BME280;19751;40.274;18.268;2022-09-01T09:51:30;100562.81;;;28.51;77.72
33404;BME280;19751;40.274;18.268;2022-09-01T09:56:44;100568.28;;;28.29;80.43
33404;BME280;19751;40.274;18.268;2022-09-01T09:59:26;100567.69;;;28.18;81.43
33404;BME280;19751;40.274;18.268;2022-09-01T10:02:12;100562.19;;;28.04;81.82
33404;BME280;19751;40.274;18.268;2022-09-01T10:04:39;100562.13;;;27.95;81.78
33404;BME280;19751;40.274;18.268;2022-09-01T10:09:52;100559.94;;;28.06;83.86
33404;BME280;19751;40.274;18.268;2022-09-01T10:12:19;100568.22;;;28.06;82.03
33404;BME280;19751;40.274;18.268;2022-09-01T10:14:50;100548.66;;;28.03;80.40
33404;BME280;19751;40.274;18.268;2022-09-01T10:17:27;100554.84;;;27.99;78.44
33404;BME280;19751;40.274;18.268;2022-09-01T10:20:00;100551.00;;;28.09;78.14
33404;BME280;19751;40.274;18.268;2022-09-01T10:22:29;100549.75;;;28.15;76.55
33404;BME280;19751;40.274;18.268;2022-09-01T10:24:56;100555.28;;;28.15;75.45
33404;BME280;19751;40.274;18.268;2022-09-01T10:27:27;100546.88;;;28.20;74.27
33404;BME280;19751;40.274;18.268;2022-09-01T10:32:31;100552.06;;;28.36;73.08
33404;BME280;19751;40.274;18.268;2022-09-01T10:34:58;100548.78;;;28.34;71.56
33404;BME280;19751;40.274;18.268;2022-09-01T10:37:24;100552.97;;;28.31;69.95
33404;BME280;19751;40.274;18.268;2022-09-01T10:42:41;100550.03;;;28.41;70.86
33404;BME280;19751;40.274;18.268;2022-09-01T10:45:19;100547.53;;;28.40;72.22
33404;BME280;19751;40.274;18.268;2022-09-01T10:47:52;100554.22;;;28.39;74.22
33404;BME280;19751;40.274;18.268;2022-09-01T10:50:26;100546.44;;;28.41;75.10
33404;BME280;19751;40.274;18.268;2022-09-01T10:52:57;100543.00;;;28.44;75.02
33404;BME280;19751;40.274;18.268;2022-09-01T10:55:29;100536.34;;;28.45;73.34
33404;BME280;19751;40.274;18.268;2022-09-01T10:58:06;100538.28;;;28.44;70.52
33404;BME280;19751;40.274;18.268;2022-09-01T11:00:44;100534.28;;;28.51;69.22
33404;BME280;19751;40.274;18.268;2022-09-01T11:09:44;100539.34;;;28.57;67.36
33404;BME280;19751;40.274;18.268;2022-09-01T11:12:37;100545.41;;;28.59;67.19
33404;BME280;19751;40.274;18.268;2022-09-01T11:18:15;100540.56;;;28.65;67.08
33404;BME280;19751;40.274;18.268;2022-09-01T11:20:49;100534.72;;;28.66;67.11
33404;BME280;19751;40.274;18.268;2022-09-01T11:23:29;100530.00;;;28.67;66.78
33404;BME280;19751;40.274;18.268;2022-09-01T11:29:00;100532.97;;;28.70;66.40
33404;BME280;19751;40.274;18.268;2022-09-01T11:31:39;100528.84;;;28.68;65.50
33404;BME280;19751;40.274;18.268;2022-09-01T11:34:28;100528.19;;;28.62;64.24
33404;BME280;19751;40.274;18.268;2022-09-01T11:37:09;100520.34;;;28.64;64.54
33404;BME280;19751;40.274;18.268;2022-09-01T11:39:48;100516.81;;;28.72;64.55
33404;BME280;19751;40.274;18.268;2022-09-01T11:42:38;100518.19;;;28.84;64.63
33404;BME280;19751;40.274;18.268;2022-09-01T11:45:19;100511.78;;;28.97;62.41
33404;BME280;19751;40.274;18.268;2022-09-01T11:47:53;100511.47;;;29.07;59.98
33404;BME280;19751;40.274;18.268;2022-09-01T11:50:27;100513.13;;;29.08;55.38
33404;BME280;19751;40.274;18.268;2022-09-01T11:53:02;100509.78;;;29.20;54.01
33404;BME280;19751;40.274;18.268;2022-09-01T11:55:44;100499.03;;;29.36;53.65
33404;BME280;19751;40.274;18.268;2022-09-01T11:58:13;100514.56;;;29.37;51.71
33404;BME280;19751;40.274;18.268;2022-09-01T12:00:54;100509.66;;;29.34;51.54
33404;BME280;19751;40.274;18.268;2022-09-01T12:03:28;100513.91;;;29.40;50.72
33404;BME280;19751;40.274;18.268;2022-09-01T12:05:55;100500.72;;;29.45;50.06
33404;BME280;19751;40.274;18.268;2022-09-01T12:08:26;100505.78;;;29.52;48.82
33404;BME280;19751;40.274;18.268;2022-09-01T12:13:32;100496.28;;;29.44;47.05
33404;BME280;19751;40.274;18.268;2022-09-01T12:16:01;100505.44;;;29.45;47.67
33404;BME280;19751;40.274;18.268;2022-09-01T12:18:30;100496.13;;;29.41;46.14
33404;BME280;19751;40.274;18.268;2022-09-01T12:20:57;100501.81;;;29.36;46.69
33404;BME280;19751;40.274;18.268;2022-09-01T12:23:27;100502.78;;;29.31;46.46
33404;BME280;19751;40.274;18.268;2022-09-01T12:25:55;100505.25;;;29.33;46.11
33404;BME280;19751;40.274;18.268;2022-09-01T12:28:23;100512.22;;;29.21;45.46
33404;BME280;19751;40.274;18.268;2022-09-01T12:30:51;100511.22;;;29.17;45.88
33404;BME280;19751;40.274;18.268;2022-09-01T12:33:18;100508.94;;;29.19;46.40
33404;BME280;19751;40.274;18.268;2022-09-01T12:35:45;100505.53;;;29.22;45.93
33404;BME280;19751;40.274;18.268;2022-09-01T12:40:50;100502.09;;;29.17;46.42
33404;BME280;19751;40.274;18.268;2022-09-01T12:43:32;100510.84;;;29.10;45.84
33404;BME280;19751;40.274;18.268;2022-09-01T12:45:58;100510.50;;;29.03;45.43
33404;BME280;19751;40.274;18.268;2022-09-01T12:48:40;100507.84;;;28.98;45.03
33404;BME280;19751;40.274;18.268;2022-09-01T12:51:23;100515.66;;;28.96;42.39
33404;BME280;19751;40.274;18.268;2022-09-01T12:53:58;100507.47;;;28.91;41.90
33404;BME280;19751;40.274;18.268;2022-09-01T12:56:36;100508.72;;;28.85;41.97
33404;BME280;19751;40.274;18.268;2022-09-01T12:59:13;100506.09;;;28.80;42.06
33404;BME280;19751;40.274;18.268;2022-09-01T13:01:40;100508.00;;;28.70;43.10
33404;BME280;19751;40.274;18.268;2022-09-01T13:04:30;100523.13;;;28.64;44.12
33404;BME280;19751;40.274;18.268;2022-09-01T13:13:10;100516.34;;;28.34;45.72
33404;BME280;19751;40.274;18.268;2022-09-01T13:15:41;100517.09;;;28.26;46.22
33404;BME280;19751;40.274;18.268;2022-09-01T13:18:07;100523.59;;;28.21;46.40
33404;BME280;19751;40.274;18.268;2022-09-01T13:20:34;100519.69;;;28.22;46.50
33404;BME280;19751;40.274;18.268;2022-09-01T13:22:59;100517.25;;;28.21;46.89
33404;BME280;19751;40.274;18.268;2022-09-01T13:25:25;100512.13;;;28.14;47.03
33404;BME280;19751;40.274;18.268;2022-09-01T13:27:51;100514.69;;;28.11;47.58
33404;BME280;19751;40.274;18.268;2022-09-01T13:30:21;100519.41;;;28.10;47.74
33404;BME280;19751;40.274;18.268;2022-09-01T13:32:47;100515.00;;;28.09;47.80
33404;BME280;19751;40.274;18.268;2022-09-01T13:35:19;100518.91;;;28.08;47.23
33404;BME280;19751;40.274;18.268;2022-09-01T13:37:45;100522.31;;;28.05;47.79
33404;BME280;19751;40.274;18.268;2022-09-01T13:40:12;100519.94;;;27.98;48.55
33404;BME280;19751;40.274;18.268;2022-09-01T13:42:50;100525.94;;;27.92;48.34
33404;BME280;19751;40.274;18.268;2022-09-01T13:45:17;100523.56;;;27.85;48.39
33404;BME280;19751;40.274;18.268;2022-09-01T13:47:47;100526.06;;;27.73;47.01